sensor_id;sensor_type;location;lat;lon;timestamp;pressure;altitude;pressure_sealevel;temperature
15544;BMP180;7873;52.230;12.856;2023-01-23T00:02:07;102630.88;;;26.95
15544;BMP180;7873;52.230;12.856;2023-01-23T00:04:34;102634.88;;;26.91
15544;BMP180;7873;52.230;12.856;2023-01-23T00:07:01;102622.69;;;26.87
15544;BMP180;7873;52.230;12.856;2023-01-23T00:09:28;102626.56;;;26.85
15544;BMP180;7873;52.230;12.856;2023-01-23T00:11:56;102617.22;;;26.79
15544;BMP180;7873;52.230;12.856;2023-01-23T00:14:23;102621.38;;;26.74
15544;BMP180;7873;52.230;12.856;2023-01-23T00:16:50;102618.69;;;26.74
15544;BMP180;7873;52.230;12.856;2023-01-23T00:19:16;102628.13;;;26.70
15544;BMP180;7873;52.230;12.856;2023-01-23T00:21:43;102619.47;;;26.66
15544;BMP180;7873;52.230;12.856;2023-01-23T00:24:11;102629.06;;;26.61
15544;BMP180;7873;52.230;12.856;2023-01-23T00:26:37;102632.78;;;26.60
15544;BMP180;7873;52.230;12.856;2023-01-23T00:29:06;102634.94;;;26.56
15544;BMP180;7873;52.230;12.856;2023-01-23T00:31:34;102639.78;;;26.53
15544;BMP180;7873;52.230;12.856;2023-01-23T00:34:03;102638.38;;;26.49
15544;BMP180;7873;52.230;12.856;2023-01-23T00:36:33;102635.09;;;26.45
15544;BMP180;7873;52.230;12.856;2023-01-23T00:39:00;102633.72;;;26.41
15544;BMP180;7873;52.230;12.856;2023-01-23T00:41:27;102634.19;;;26.37
15544;BMP180;7873;52.230;12.856;2023-01-23T00:43:53;102630.94;;;26.33
15544;BMP180;7873;52.230;12.856;2023-01-23T00:46:21;102632.09;;;26.31
15544;BMP180;7873;52.230;12.856;2023-01-23T00:48:49;102635.09;;;26.28
15544;BMP180;7873;52.230;12.856;2023-01-23T00:51:16;102639.81;;;26.26
15544;BMP180;7873;52.230;12.856;2023-01-23T00:53:43;102642.00;;;26.22
15544;BMP180;7873;52.230;12.856;2023-01-23T00:56:10;102645.13;;;26.18
15544;BMP180;7873;52.230;12.856;2023-01-23T00:58:37;102644.59;;;26.14
15544;BMP180;7873;52.230;12.856;2023-01-23T01:01:05;102650.28;;;26.11
15544;BMP180;7873;52.230;12.856;2023-01-23T01:03:33;102648.91;;;26.07
15544;BMP180;7873;52.230;12.856;2023-01-23T01:06:00;102650.03;;;26.05
15544;BMP180;7873;52.230;12.856;2023-01-23T01:08:27;102659.13;;;26.04
15544;BMP180;7873;52.230;12.856;2023-01-23T01:10:54;102659.44;;;26.01
15544;BMP180;7873;52.230;12.856;2023-01-23T01:13:20;102661.59;;;25.97
15544;BMP180;7873;52.230;12.856;2023-01-23T01:15:48;102666.47;;;25.94
15544;BMP180;7873;52.230;12.856;2023-01-23T01:18:16;102668.59;;;25.90
15544;BMP180;7873;52.230;12.856;2023-01-23T01:20:44;102665.34;;;25.87
15544;BMP180;7873;52.230;12.856;2023-01-23T01:23:11;102668.47;;;25.82
15544;BMP180;7873;52.230;12.856;2023-01-23T01:25:38;102665.22;;;25.79
15544;BMP180;7873;52.230;12.856;2023-01-23T01:28:06;102667.22;;;25.77
15544;BMP180;7873;52.230;12.856;2023-01-23T01:30:33;102671.91;;;25.75
15544;BMP180;7873;52.230;12.856;2023-01-23T01:33:01;102679.31;;;25.73
15544;BMP180;7873;52.230;12.856;2023-01-23T01:35:27;102678.59;;;25.71
15544;BMP180;7873;52.230;12.856;2023-01-23T01:37:55;102684.31;;;25.68
15544;BMP180;7873;52.230;12.856;2023-01-23T01:40:24;102683.75;;;25.64
15544;BMP180;7873;52.230;12.856;2023-01-23T01:42:55;102681.19;;;25.63
15544;BMP180;7873;52.230;12.856;2023-01-23T01:48:30;102697.97;;;25.57
15544;BMP180;7873;52.230;12.856;2023-01-23T01:50:58;102691.88;;;25.55
15544;BMP180;7873;52.230;12.856;2023-01-23T01:53:28;102695.56;;;25.54
15544;BMP180;7873;52.230;12.856;2023-01-23T01:55:57;102691.59;;;25.49
15544;BMP180;7873;52.230;12.856;2023-01-23T01:58:25;102695.28;;;25.48
15544;BMP180;7873;52.230;12.856;2023-01-23T02:00:52;102697.28;;;25.46
15544;BMP180;7873;52.230;12.856;2023-01-23T02:03:20;102693.88;;;25.44
15544;BMP180;7873;52.230;12.856;2023-01-23T02:05:48;102703.28;;;25.40
15544;BMP180;7873;52.230;12.856;2023-01-23T02:08:20;102692.78;;;25.37
15544;BMP180;7873;52.230;12.856;2023-01-23T02:10:49;102698.31;;;25.35
15544;BMP180;7873;52.230;12.856;2023-01-23T02:13:20;102696.59;;;25.34
15544;BMP180;7873;52.230;12.856;2023-01-23T02:15:48;102697.91;;;25.30
15544;BMP180;7873;52.230;12.856;2023-01-23T02:18:15;102696.06;;;25.31
15544;BMP180;7873;52.230;12.856;2023-01-23T02:20:42;102710.69;;;25.28
15544;BMP180;7873;52.230;12.856;2023-01-23T02:23:15;102702.00;;;25.25
15544;BMP180;7873;52.230;12.856;2023-01-23T02:25:53;102703.19;;;25.22
15544;BMP180;7873;52.230;12.856;2023-01-23T02:28:20;102702.47;;;25.20
15544;BMP180;7873;52.230;12.856;2023-01-23T02:30:47;102697.22;;;25.19
15544;BMP180;7873;52.230;12.856;2023-01-23T02:33:43;102701.00;;;25.16
15544;BMP180;7873;52.230;12.856;2023-01-23T02:36:10;102701.28;;;25.13
15544;BMP180;7873;52.230;12.856;2023-01-23T02:38:45;102706.84;;;25.12
15544;BMP180;7873;52.230;12.856;2023-01-23T02:41:16;102715.34;;;25.07
15544;BMP180;7873;52.230;12.856;2023-01-23T02:43:44;102708.13;;;25.08
15544;BMP180;7873;52.230;12.856;2023-01-23T02:46:11;102710.25;;;25.04
15544;BMP180;7873;52.230;12.856;2023-01-23T02:48:39;102715.66;;;25.04
15544;BMP180;7873;52.230;12.856;2023-01-23T02:51:08;102715.94;;;25.01
15544;BMP180;7873;52.230;12.856;2023-01-23T02:53:34;102723.31;;;24.99
15544;BMP180;7873;52.230;12.856;2023-01-23T02:56:01;102729.69;;;24.98
15544;BMP180;7873;52.230;12.856;2023-01-23T02:58:29;102730.69;;;24.97
15544;BMP180;7873;52.230;12.856;2023-01-23T03:01:13;102730.13;;;24.94
15544;BMP180;7873;52.230;12.856;2023-01-23T03:03:40;102742.03;;;24.91
15544;BMP180;7873;52.230;12.856;2023-01-23T03:06:07;102736.91;;;24.88
15544;BMP180;7873;52.230;12.856;2023-01-23T03:08:34;102736.22;;;24.86
15544;BMP180;7873;52.230;12.856;2023-01-23T03:11:13;102738.19;;;24.84
15544;BMP180;7873;52.230;12.856;2023-01-23T03:13:41;102738.19;;;24.84
15544;BMP180;7873;52.230;12.856;2023-01-23T03:16:08;102736.50;;;24.83
15544;BMP180;7873;52.230;12.856;2023-01-23T03:18:35;102740.19;;;24.82
15544;BMP180;7873;52.230;12.856;2023-01-23T03:21:02;102737.63;;;24.81
15544;BMP180;7873;52.230;12.856;2023-01-23T03:23:29;102739.88;;;24.76
15544;BMP180;7873;52.230;12.856;2023-01-23T03:25:56;102742.59;;;24.76
15544;BMP180;7873;52.230;12.856;2023-01-23T03:28:24;102744.56;;;24.74
15544;BMP180;7873;52.230;12.856;2023-01-23T03:31:10;102752.81;;;24.72
15544;BMP180;7873;52.230;12.856;2023-01-23T03:33:37;102754.94;;;24.69
15544;BMP180;7873;52.230;12.856;2023-01-23T03:36:07;102765.84;;;24.67
15544;BMP180;7873;52.230;12.856;2023-01-23T03:38:34;102759.88;;;24.64
15544;BMP180;7873;52.230;12.856;2023-01-23T03:41:01;102767.09;;;24.63
15544;BMP180;7873;52.230;12.856;2023-01-23T03:44:00;102768.09;;;24.62
15544;BMP180;7873;52.230;12.856;2023-01-23T03:46:28;102780.03;;;24.60
15544;BMP180;7873;52.230;12.856;2023-01-23T03:48:54;102781.13;;;24.57
15544;BMP180;7873;52.230;12.856;2023-01-23T03:51:21;102780.28;;;24.57
15544;BMP180;7873;52.230;12.856;2023-01-23T03:53:48;102777.84;;;24.54
15544;BMP180;7873;52.230;12.856;2023-01-23T03:56:14;102777.84;;;24.54
15544;BMP180;7873;52.230;12.856;2023-01-23T03:58:41;102786.94;;;24.53
15544;BMP180;7873;52.230;12.856;2023-01-23T04:01:08;102784.63;;;24.48
15544;BMP180;7873;52.230;12.856;2023-01-23T04:03:36;102786.34;;;24.49
15544;BMP180;7873;52.230;12.856;2023-01-23T04:06:03;102784.06;;;24.45
15544;BMP180;7873;52.230;12.856;2023-01-23T04:08:30;102785.88;;;24.44
15544;BMP180;7873;52.230;12.856;2023-01-23T04:11:01;102797.63;;;24.43
15544;BMP180;7873;52.230;12.856;2023-01-23T04:13:28;102791.41;;;24.43
15544;BMP180;7873;52.230;12.856;2023-01-23T04:15:54;102786.16;;;24.41
15544;BMP180;7873;52.230;12.856;2023-01-23T04:18:21;102799.50;;;24.43
15544;BMP180;7873;52.230;12.856;2023-01-23T04:20:49;102803.91;;;24.44
15544;BMP180;7873;52.230;12.856;2023-01-23T04:23:16;102805.72;;;24.43
15544;BMP180;7873;52.230;12.856;2023-01-23T04:25:43;102805.72;;;24.43
15544;BMP180;7873;52.230;12.856;2023-01-23T04:28:10;102801.03;;;24.45
15544;BMP180;7873;52.230;12.856;2023-01-23T04:30:36;102801.63;;;24.49
15544;BMP180;7873;52.230;12.856;2023-01-23T04:33:03;102802.25;;;24.52
15544;BMP180;7873;52.230;12.856;2023-01-23T04:35:30;102801.28;;;24.53
15544;BMP180;7873;52.230;12.856;2023-01-23T04:37:58;102800.28;;;24.54
15544;BMP180;7873;52.230;12.856;2023-01-23T04:40:25;102800.56;;;24.51
15544;BMP180;7873;52.230;12.856;2023-01-23T04:42:52;102802.38;;;24.51
15544;BMP180;7873;52.230;12.856;2023-01-23T04:45:19;102799.69;;;24.51
15544;BMP180;7873;52.230;12.856;2023-01-23T04:47:45;102798.81;;;24.50
15544;BMP180;7873;52.230;12.856;2023-01-23T04:50:12;102801.41;;;24.52
15544;BMP180;7873;52.230;12.856;2023-01-23T04:52:39;102796.25;;;24.49
15544;BMP180;7873;52.230;12.856;2023-01-23T04:55:08;102797.63;;;24.43
15544;BMP180;7873;52.230;12.856;2023-01-23T04:57:35;102804.19;;;24.41
15544;BMP180;7873;52.230;12.856;2023-01-23T05:00:03;102798.06;;;24.39
15544;BMP180;7873;52.230;12.856;2023-01-23T05:02:29;102798.63;;;24.42
15544;BMP180;7873;52.230;12.856;2023-01-23T05:04:56;102802.31;;;24.41
15544;BMP180;7873;52.230;12.856;2023-01-23T05:07:23;102800.34;;;24.43
15544;BMP180;7873;52.230;12.856;2023-01-23T05:09:49;102798.50;;;24.44
15544;BMP180;7873;52.230;12.856;2023-01-23T05:12:17;102789.28;;;24.46
15544;BMP180;7873;52.230;12.856;2023-01-23T05:14:44;102800.81;;;24.48
15544;BMP180;7873;52.230;12.856;2023-01-23T05:17:11;102797.97;;;24.50
15544;BMP180;7873;52.230;12.856;2023-01-23T05:19:37;102793.56;;;24.49
15544;BMP180;7873;52.230;12.856;2023-01-23T05:22:04;102801.41;;;24.52
15544;BMP180;7873;52.230;12.856;2023-01-23T05:24:31;102800.66;;;24.50
15544;BMP180;7873;52.230;12.856;2023-01-23T05:26:57;102810.47;;;24.51
15544;BMP180;7873;52.230;12.856;2023-01-23T05:29:25;102812.41;;;24.49
15544;BMP180;7873;52.230;12.856;2023-01-23T05:31:52;102815.38;;;24.46
15544;BMP180;7873;52.230;12.856;2023-01-23T05:34:19;102813.53;;;24.37
15544;BMP180;7873;52.230;12.856;2023-01-23T05:36:45;102810.78;;;24.27
15544;BMP180;7873;52.230;12.856;2023-01-23T05:39:12;102802.25;;;24.22
15544;BMP180;7873;52.230;12.856;2023-01-23T05:41:39;102807.78;;;24.21
15544;BMP180;7873;52.230;12.856;2023-01-23T05:44:05;102808.88;;;24.18
15544;BMP180;7873;52.230;12.856;2023-01-23T05:46:33;102815.25;;;24.17
15544;BMP180;7873;52.230;12.856;2023-01-23T05:49:00;102813.22;;;24.10
15544;BMP180;7873;52.230;12.856;2023-01-23T05:51:27;102818.91;;;24.07
15544;BMP180;7873;52.230;12.856;2023-01-23T05:53:56;102822.72;;;24.04
15544;BMP180;7873;52.230;12.856;2023-01-23T05:56:23;102822.97;;;24.01
15544;BMP180;7873;52.230;12.856;2023-01-23T05:58:50;102832.19;;;23.99
15544;BMP180;7873;52.230;12.856;2023-01-23T06:01:17;102836.97;;;23.95
15544;BMP180;7873;52.230;12.856;2023-01-23T06:03:46;102844.22;;;23.95
15544;BMP180;7873;52.230;12.856;2023-01-23T06:06:13;102837.94;;;23.94
15544;BMP180;7873;52.230;12.856;2023-01-23T06:08:40;102835.53;;;23.91
15544;BMP180;7873;52.230;12.856;2023-01-23T06:11:06;102839.31;;;23.89
15544;BMP180;7873;52.230;12.856;2023-01-23T06:13:33;102851.22;;;23.86
15544;BMP180;7873;52.230;12.856;2023-01-23T06:16:00;102856.72;;;23.85
15544;BMP180;7873;52.230;12.856;2023-01-23T06:18:26;102856.00;;;23.83
15544;BMP180;7873;52.230;12.856;2023-01-23T06:20:58;102854.31;;;23.82
15544;BMP180;7873;52.230;12.856;2023-01-23T06:23:24;102855.19;;;23.83
15544;BMP180;7873;52.230;12.856;2023-01-23T06:25:51;102849.03;;;23.80
15544;BMP180;7873;52.230;12.856;2023-01-23T06:28:18;102859.91;;;23.79
15544;BMP180;7873;52.230;12.856;2023-01-23T06:30:45;102858.22;;;23.78
15544;BMP180;7873;52.230;12.856;2023-01-23T06:33:11;102859.19;;;23.77
15544;BMP180;7873;52.230;12.856;2023-01-23T06:35:38;102867.38;;;23.75
15544;BMP180;7873;52.230;12.856;2023-01-23T06:38:06;102859.47;;;23.74
15544;BMP180;7873;52.230;12.856;2023-01-23T06:40:32;102864.13;;;23.72
15544;BMP180;7873;52.230;12.856;2023-01-23T06:42:59;102875.88;;;23.71
15544;BMP180;7873;52.230;12.856;2023-01-23T06:45:26;102873.31;;;23.70
15544;BMP180;7873;52.230;12.856;2023-01-23T06:47:52;102871.59;;;23.69
15544;BMP180;7873;52.230;12.856;2023-01-23T06:50:19;102870.88;;;23.67
15544;BMP180;7873;52.230;12.856;2023-01-23T06:52:46;102871.84;;;23.66
15544;BMP180;7873;52.230;12.856;2023-01-23T06:55:14;102874.66;;;23.64
15544;BMP180;7873;52.230;12.856;2023-01-23T06:57:40;102873.84;;;23.64
15544;BMP180;7873;52.230;12.856;2023-01-23T07:00:08;102877.50;;;23.63
15544;BMP180;7873;52.230;12.856;2023-01-23T07:02:36;102875.06;;;23.60
15544;BMP180;7873;52.230;12.856;2023-01-23T07:05:03;102877.88;;;23.58
15544;BMP180;7873;52.230;12.856;2023-01-23T07:07:30;102884.13;;;23.59
15544;BMP180;7873;52.230;12.856;2023-01-23T07:09:57;102884.97;;;23.59
15544;BMP180;7873;52.230;12.856;2023-01-23T07:12:25;102884.25;;;23.57
15544;BMP180;7873;52.230;12.856;2023-01-23T07:14:51;102881.69;;;23.56
15544;BMP180;7873;52.230;12.856;2023-01-23T07:17:18;102889.03;;;23.54
15544;BMP180;7873;52.230;12.856;2023-01-23T07:19:45;102892.69;;;23.53
15544;BMP180;7873;52.230;12.856;2023-01-23T07:22:11;102891.84;;;23.52
15544;BMP180;7873;52.230;12.856;2023-01-23T07:24:38;102894.66;;;23.51
15544;BMP180;7873;52.230;12.856;2023-01-23T07:27:05;102896.50;;;23.50
15544;BMP180;7873;52.230;12.856;2023-01-23T07:29:33;102892.13;;;23.49
15544;BMP180;7873;52.230;12.856;2023-01-23T07:31:59;102891.41;;;23.47
15544;BMP180;7873;52.230;12.856;2023-01-23T07:34:26;102887.84;;;23.47
15544;BMP180;7873;52.230;12.856;2023-01-23T07:36:53;102893.22;;;23.47
15544;BMP180;7873;52.230;12.856;2023-01-23T07:39:19;102888.81;;;23.46
15544;BMP180;7873;52.230;12.856;2023-01-23T07:41:47;102890.78;;;23.44
15544;BMP180;7873;52.230;12.856;2023-01-23T07:44:15;102893.47;;;23.44
15544;BMP180;7873;52.230;12.856;2023-01-23T07:46:44;102897.03;;;23.44
15544;BMP180;7873;52.230;12.856;2023-01-23T07:49:11;102900.81;;;23.42
15544;BMP180;7873;52.230;12.856;2023-01-23T07:51:38;102909.88;;;23.41
15544;BMP180;7873;52.230;12.856;2023-01-23T07:54:05;102907.31;;;23.39
15544;BMP180;7873;52.230;12.856;2023-01-23T07:56:32;102903.78;;;23.39
15544;BMP180;7873;52.230;12.856;2023-01-23T07:58:59;102911.94;;;23.37
15544;BMP180;7873;52.230;12.856;2023-01-23T08:01:26;102917.34;;;23.37
15544;BMP180;7873;52.230;12.856;2023-01-23T08:03:54;102920.16;;;23.36
15544;BMP180;7873;52.230;12.856;2023-01-23T08:06:20;102918.47;;;23.35
15544;BMP180;7873;52.230;12.856;2023-01-23T08:08:47;102918.47;;;23.35
15544;BMP180;7873;52.230;12.856;2023-01-23T08:11:14;102917.13;;;23.29
15544;BMP180;7873;52.230;12.856;2023-01-23T08:13:41;102918.94;;;23.29
15544;BMP180;7873;52.230;12.856;2023-01-23T08:16:08;102912.00;;;23.26
15544;BMP180;7873;52.230;12.856;2023-01-23T08:18:35;102915.78;;;23.24
15544;BMP180;7873;52.230;12.856;2023-01-23T08:21:03;102911.38;;;23.23
15544;BMP180;7873;52.230;12.856;2023-01-23T08:23:31;102917.75;;;23.22
15544;BMP180;7873;52.230;12.856;2023-01-23T08:26:00;102917.75;;;23.22
15544;BMP180;7873;52.230;12.856;2023-01-23T08:28:27;102917.84;;;23.20
15544;BMP180;7873;52.230;12.856;2023-01-23T08:30:54;102931.31;;;23.20
15544;BMP180;7873;52.230;12.856;2023-01-23T08:33:21;102935.13;;;23.18
15544;BMP180;7873;52.230;12.856;2023-01-23T08:35:48;102945.00;;;23.17
15544;BMP180;7873;52.230;12.856;2023-01-23T08:38:17;102944.16;;;23.17
15544;BMP180;7873;52.230;12.856;2023-01-23T08:40:44;102947.84;;;23.16
15544;BMP180;7873;52.230;12.856;2023-01-23T08:43:11;102958.69;;;23.14
15544;BMP180;7873;52.230;12.856;2023-01-23T08:45:38;102959.81;;;23.12
15544;BMP180;7873;52.230;12.856;2023-01-23T08:48:05;102961.84;;;23.08
15544;BMP180;7873;52.230;12.856;2023-01-23T08:50:32;102967.22;;;23.08
15544;BMP180;7873;52.230;12.856;2023-01-23T08:52:58;102968.31;;;23.06
15544;BMP180;7873;52.230;12.856;2023-01-23T08:55:26;102977.38;;;23.05
15544;BMP180;7873;52.230;12.856;2023-01-23T08:57:53;102977.63;;;23.02
15544;BMP180;7873;52.230;12.856;2023-01-23T09:00:20;102987.38;;;23.03
15544;BMP180;7873;52.230;12.856;2023-01-23T09:02:47;102991.06;;;23.02
15544;BMP180;7873;52.230;12.856;2023-01-23T09:05:14;102993.88;;;23.00
15544;BMP180;7873;52.230;12.856;2023-01-23T09:07:40;102993.00;;;23.00
15544;BMP180;7873;52.230;12.856;2023-01-23T09:10:09;102999.38;;;22.99
15544;BMP180;7873;52.230;12.856;2023-01-23T09:12:37;103005.81;;;22.96
15544;BMP180;7873;52.230;12.856;2023-01-23T09:15:04;103010.38;;;22.96
15544;BMP180;7873;52.230;12.856;2023-01-23T09:17:31;103012.31;;;22.94
15544;BMP180;7873;52.230;12.856;2023-01-23T09:19:57;103018.69;;;22.93
15544;BMP180;7873;52.230;12.856;2023-01-23T09:22:25;103018.78;;;22.91
15544;BMP180;7873;52.230;12.856;2023-01-23T09:24:51;103022.44;;;22.90
15544;BMP180;7873;52.230;12.856;2023-01-23T09:27:18;103021.47;;;22.91
15544;BMP180;7873;52.230;12.856;2023-01-23T09:29:46;103028.81;;;22.89
15544;BMP180;7873;52.230;12.856;2023-01-23T09:32:13;103028.94;;;22.88
15544;BMP180;7873;52.230;12.856;2023-01-23T09:34:39;103026.38;;;22.86
15544;BMP180;7873;52.230;12.856;2023-01-23T09:37:06;103030.03;;;22.85
15544;BMP180;7873;52.230;12.856;2023-01-23T09:39:33;103031.13;;;22.83
15544;BMP180;7873;52.230;12.856;2023-01-23T09:42:01;103035.66;;;22.82
15544;BMP180;7873;52.230;12.856;2023-01-23T09:44:35;103030.38;;;22.81
15544;BMP180;7873;52.230;12.856;2023-01-23T09:47:08;103031.34;;;22.80
15544;BMP180;7873;52.230;12.856;2023-01-23T09:49:40;103028.66;;;22.80
15544;BMP180;7873;52.230;12.856;2023-01-23T09:52:11;103043.09;;;22.79
15544;BMP180;7873;52.230;12.856;2023-01-23T09:54:42;103033.31;;;22.78
15544;BMP180;7873;52.230;12.856;2023-01-23T09:57:13;103038.09;;;22.74
15544;BMP180;7873;52.230;12.856;2023-01-23T09:59:45;103030.03;;;22.74
15544;BMP180;7873;52.230;12.856;2023-01-23T10:02:15;103038.19;;;22.73
15544;BMP180;7873;52.230;12.856;2023-01-23T10:04:45;103045.28;;;22.74
15544;BMP180;7873;52.230;12.856;2023-01-23T10:07:24;103030.25;;;22.71
15544;BMP180;7873;52.230;12.856;2023-01-23T10:10:05;103033.91;;;22.70
15544;BMP180;7873;52.230;12.856;2023-01-23T10:12:43;103038.69;;;22.67
15544;BMP180;7873;52.230;12.856;2023-01-23T10:15:21;103035.03;;;22.68
15544;BMP180;7873;52.230;12.856;2023-01-23T10:17:59;103039.53;;;22.67
15544;BMP180;7873;52.230;12.856;2023-01-23T10:20:44;103028.91;;;22.66
15544;BMP180;7873;52.230;12.856;2023-01-23T10:23:22;103030.88;;;22.64
15544;BMP180;7873;52.230;12.856;2023-01-23T10:25:55;103031.84;;;22.63
15544;BMP180;7873;52.230;12.856;2023-01-23T10:28:28;103027.56;;;22.60
15544;BMP180;7873;52.230;12.856;2023-01-23T10:31:01;103030.34;;;22.59
15544;BMP180;7873;52.230;12.856;2023-01-23T10:33:38;103037.44;;;22.60
15544;BMP180;7873;52.230;12.856;2023-01-23T10:36:15;103035.84;;;22.57
15544;BMP180;7873;52.230;12.856;2023-01-23T10:38:47;103035.97;;;22.56
15544;BMP180;7873;52.230;12.856;2023-01-23T10:41:15;103040.50;;;22.55
15544;BMP180;7873;52.230;12.856;2023-01-23T10:43:46;103026.31;;;22.53
15544;BMP180;7873;52.230;12.856;2023-01-23T10:46:15;103031.69;;;22.53
15544;BMP180;7873;52.230;12.856;2023-01-23T10:48:44;103035.38;;;22.52
15544;BMP180;7873;52.230;12.856;2023-01-23T10:51:31;103036.34;;;22.51
15544;BMP180;7873;52.230;12.856;2023-01-23T10:54:08;103040.84;;;22.51
15544;BMP180;7873;52.230;12.856;2023-01-23T10:56:45;103030.34;;;22.48
15544;BMP180;7873;52.230;12.856;2023-01-23T10:59:19;103032.03;;;22.49
15544;BMP180;7873;52.230;12.856;2023-01-23T11:02:01;103026.78;;;22.47
15544;BMP180;7873;52.230;12.856;2023-01-23T11:04:34;103029.59;;;22.46
15544;BMP180;7873;52.230;12.856;2023-01-23T11:07:05;103028.72;;;22.45
15544;BMP180;7873;52.230;12.856;2023-01-23T11:09:44;103022.63;;;22.43
15544;BMP180;7873;52.230;12.856;2023-01-23T11:12:15;103027.16;;;22.43
15544;BMP180;7873;52.230;12.856;2023-01-23T11:14:43;103025.44;;;22.42
15544;BMP180;7873;52.230;12.856;2023-01-23T11:17:16;103030.94;;;22.40
15544;BMP180;7873;52.230;12.856;2023-01-23T11:19:46;103022.13;;;22.38
15544;BMP180;7873;52.230;12.856;2023-01-23T11:22:27;103017.75;;;22.37
15544;BMP180;7873;52.230;12.856;2023-01-23T11:24:54;103021.38;;;22.36
15544;BMP180;7873;52.230;12.856;2023-01-23T11:27:22;103013.31;;;22.36
15544;BMP180;7873;52.230;12.856;2023-01-23T11:30:15;103007.06;;;22.36
15544;BMP180;7873;52.230;12.856;2023-01-23T11:32:52;103008.91;;;22.35
15544;BMP180;7873;52.230;12.856;2023-01-23T11:35:26;103003.78;;;22.32
15544;BMP180;7873;52.230;12.856;2023-01-23T11:37:56;103003.78;;;22.32
15544;BMP180;7873;52.230;12.856;2023-01-23T11:40:25;103003.88;;;22.31
15544;BMP180;7873;52.230;12.856;2023-01-23T11:42:53;103000.38;;;22.30
15544;BMP180;7873;52.230;12.856;2023-01-23T11:45:34;103005.00;;;22.28
15544;BMP180;7873;52.230;12.856;2023-01-23T11:48:17;103011.22;;;22.29
15544;BMP180;7873;52.230;12.856;2023-01-23T11:50:48;103007.78;;;22.27
15544;BMP180;7873;52.230;12.856;2023-01-23T11:53:24;103014.00;;;22.27
15544;BMP180;7873;52.230;12.856;2023-01-23T11:56:16;103007.88;;;22.25
15544;BMP180;7873;52.230;12.856;2023-01-23T11:59:01;103010.72;;;22.24
15544;BMP180;7873;52.230;12.856;2023-01-23T12:01:39;103000.06;;;22.22
15544;BMP180;7873;52.230;12.856;2023-01-23T12:04:34;102999.25;;;22.22
15544;BMP180;7873;52.230;12.856;2023-01-23T12:07:14;103003.63;;;22.23
15544;BMP180;7873;52.230;12.856;2023-01-23T12:09:51;103003.72;;;22.21
15544;BMP180;7873;52.230;12.856;2023-01-23T12:12:33;102990.56;;;22.18
15544;BMP180;7873;52.230;12.856;2023-01-23T12:15:11;102991.41;;;22.19
15544;BMP180;7873;52.230;12.856;2023-01-23T12:17:47;102979.81;;;22.18
15544;BMP180;7873;52.230;12.856;2023-01-23T12:20:25;102987.13;;;22.16
15544;BMP180;7873;52.230;12.856;2023-01-23T12:23:09;102988.84;;;22.17
15544;BMP180;7873;52.230;12.856;2023-01-23T12:25:39;102988.09;;;22.15
15544;BMP180;7873;52.230;12.856;2023-01-23T12:28:19;102990.78;;;22.15
15544;BMP180;7873;52.230;12.856;2023-01-23T12:31:01;102987.38;;;22.13
15544;BMP180;7873;52.230;12.856;2023-01-23T12:33:55;102995.53;;;22.12
15544;BMP180;7873;52.230;12.856;2023-01-23T12:36:54;102988.44;;;22.11
15544;BMP180;7873;52.230;12.856;2023-01-23T12:39:38;102985.91;;;22.09
15544;BMP180;7873;52.230;12.856;2023-01-23T12:42:14;102985.03;;;22.09
15544;BMP180;7873;52.230;12.856;2023-01-23T12:44:49;102984.06;;;22.10
15544;BMP180;7873;52.230;12.856;2023-01-23T12:47:23;102981.50;;;22.08
15544;BMP180;7873;52.230;12.856;2023-01-23T12:49:53;102972.72;;;22.06
15544;BMP180;7873;52.230;12.856;2023-01-23T12:52:24;102971.13;;;22.04
15544;BMP180;7873;52.230;12.856;2023-01-23T12:55:01;102972.81;;;22.05
15544;BMP180;7873;52.230;12.856;2023-01-23T12:57:30;102971.97;;;22.04
15544;BMP180;7873;52.230;12.856;2023-01-23T13:00:15;102976.47;;;22.04
15544;BMP180;7873;52.230;12.856;2023-01-23T13:02:46;102977.69;;;22.00
15544;BMP180;7873;52.230;12.856;2023-01-23T13:05:19;102978.66;;;21.99
15544;BMP180;7873;52.230;12.856;2023-01-23T13:07:53;102975.97;;;21.99
15544;BMP180;7873;52.230;12.856;2023-01-23T13:10:51;102977.94;;;21.97
15544;BMP180;7873;52.230;12.856;2023-01-23T13:13:38;102982.44;;;21.97
15544;BMP180;7873;52.230;12.856;2023-01-23T13:16:10;102978.28;;;21.93
15544;BMP180;7873;52.230;12.856;2023-01-23T13:18:37;102979.97;;;21.94
15544;BMP180;7873;52.230;12.856;2023-01-23T13:21:22;102985.59;;;21.91
15544;BMP180;7873;52.230;12.856;2023-01-23T13:24:26;102990.94;;;21.91
15544;BMP180;7873;52.230;12.856;2023-01-23T13:27:35;102999.22;;;21.88
15544;BMP180;7873;52.230;12.856;2023-01-23T13:30:04;102998.25;;;21.89
15544;BMP180;7873;52.230;12.856;2023-01-23T13:32:31;102995.56;;;21.89
15544;BMP180;7873;52.230;12.856;2023-01-23T13:34:57;103001.03;;;21.87
15544;BMP180;7873;52.230;12.856;2023-01-23T13:37:47;102996.66;;;21.86
15544;BMP180;7873;52.230;12.856;2023-01-23T13:40:18;102999.47;;;21.85
15544;BMP180;7873;52.230;12.856;2023-01-23T13:42:47;102999.47;;;21.85
15544;BMP180;7873;52.230;12.856;2023-01-23T13:45:34;102994.09;;;21.85
15544;BMP180;7873;52.230;12.856;2023-01-23T13:51:26;102989.69;;;21.84
15544;BMP180;7873;52.230;12.856;2023-01-23T13:53:53;102991.75;;;21.80
15544;BMP180;7873;52.230;12.856;2023-01-23T13:56:38;102991.84;;;21.79
15544;BMP180;7873;52.230;12.856;2023-01-23T13:59:26;102990.03;;;21.79
15544;BMP180;7873;52.230;12.856;2023-01-23T14:02:16;102992.72;;;21.79
15544;BMP180;7873;52.230;12.856;2023-01-23T14:05:04;102994.66;;;21.77
15544;BMP180;7873;52.230;12.856;2023-01-23T14:07:40;103003.78;;;21.75
15544;BMP180;7873;52.230;12.856;2023-01-23T14:10:23;103008.06;;;21.77
15544;BMP180;7873;52.230;12.856;2023-01-23T14:12:59;103002.94;;;21.74
15544;BMP180;7873;52.230;12.856;2023-01-23T14:15:28;103008.41;;;21.73
15544;BMP180;7873;52.230;12.856;2023-01-23T14:18:16;103008.53;;;21.71
15544;BMP180;7873;52.230;12.856;2023-01-23T14:20:44;102999.72;;;21.69
15544;BMP180;7873;52.230;12.856;2023-01-23T14:23:26;103002.41;;;21.69